createdAt,value
2018-10-19T00:00:34.416Z,23.50
2018-10-19T00:03:03.812Z,23.50
2018-10-19T00:05:33.036Z,23.50
2018-10-19T00:08:02.236Z,23.50
2018-10-19T00:10:31.516Z,23.50
2018-10-19T00:13:00.967Z,23.50
2018-10-19T00:15:30.368Z,23.40
2018-10-19T00:17:59.485Z,23.50
2018-10-19T00:20:28.696Z,23.50
2018-10-19T00:22:58.320Z,23.50
2018-10-19T00:25:27.864Z,23.50
2018-10-19T00:27:57.258Z,23.50
2018-10-19T00:30:26.476Z,23.50
2018-10-19T00:32:55.879Z,23.50
2018-10-19T00:35:25.179Z,23.50
2018-10-19T00:37:54.335Z,23.40
2018-10-19T00:40:23.657Z,23.50
2018-10-19T00:42:52.955Z,23.50
2018-10-19T00:45:53.432Z,23.50
2018-10-19T00:48:22.681Z,23.50
2018-10-19T00:50:52.076Z,23.40
2018-10-19T00:53:21.295Z,23.50
2018-10-19T00:55:50.440Z,23.50
2018-10-19T00:58:19.623Z,23.50
2018-10-19T01:00:48.988Z,23.50
2018-10-19T01:03:18.419Z,23.50
2018-10-19T01:05:47.779Z,23.40
2018-10-19T01:08:17.077Z,23.50
2018-10-19T01:10:46.517Z,23.50
2018-10-19T01:13:15.796Z,23.50
2018-10-19T01:15:45.092Z,23.50
2018-10-19T01:18:14.170Z,23.50
2018-10-19T01:20:43.452Z,23.50
2018-10-19T01:23:12.694Z,23.40
2018-10-19T01:25:42.767Z,23.50
2018-10-19T01:28:12.470Z,23.50
2018-10-19T01:30:42.057Z,23.50
2018-10-19T01:33:11.484Z,23.50
2018-10-19T01:35:40.961Z,23.40
2018-10-19T01:38:10.232Z,23.40
2018-10-19T01:40:39.497Z,23.50
2018-10-19T01:43:08.607Z,23.50
2018-10-19T01:45:38.053Z,23.50
2018-10-19T01:48:07.332Z,23.40
2018-10-19T01:50:36.624Z,23.50
2018-10-19T01:53:06.172Z,23.40
2018-10-19T01:55:35.583Z,23.50
2018-10-19T01:58:04.852Z,23.50
2018-10-19T02:00:34.152Z,23.40
2018-10-19T02:03:03.502Z,23.40
2018-10-19T02:05:32.724Z,23.50
2018-10-19T02:08:02.052Z,23.40
2018-10-19T02:10:31.557Z,23.40
2018-10-19T02:13:00.760Z,23.50
2018-10-19T02:15:29.948Z,23.40
2018-10-19T02:17:59.170Z,23.50
2018-10-19T02:20:28.247Z,23.50
2018-10-19T02:22:57.488Z,23.40
2018-10-19T02:25:26.792Z,23.50
2018-10-19T02:27:56.019Z,23.40
2018-10-19T02:30:25.449Z,23.50
2018-10-19T02:32:54.770Z,23.40
2018-10-19T02:35:24.293Z,23.50
2018-10-19T02:37:53.648Z,23.40
2018-10-19T02:40:23.001Z,23.40
2018-10-19T02:42:52.376Z,23.50
2018-10-19T02:45:21.792Z,23.50
2018-10-19T02:47:51.187Z,23.40
2018-10-19T02:50:20.491Z,23.40
2018-10-19T02:52:49.888Z,23.40
2018-10-19T02:55:19.100Z,23.40
2018-10-19T02:57:48.367Z,23.40
2018-10-19T03:00:17.474Z,23.40
2018-10-19T03:02:46.959Z,23.40
2018-10-19T03:05:16.537Z,23.40
2018-10-19T03:07:45.687Z,23.40
2018-10-19T03:10:15.089Z,23.50
2018-10-19T03:12:44.389Z,23.40
2018-10-19T03:15:13.756Z,23.40
2018-10-19T03:17:43.256Z,23.40
2018-10-19T03:20:12.497Z,23.40
2018-10-19T03:22:42.021Z,23.40
2018-10-19T03:25:11.509Z,23.40
2018-10-19T03:27:40.812Z,23.40
2018-10-19T03:30:10.252Z,23.40
2018-10-19T03:32:39.389Z,23.40
2018-10-19T03:35:08.849Z,23.40
2018-10-19T03:37:37.981Z,23.40
2018-10-19T03:40:07.312Z,23.40
2018-10-19T03:42:36.716Z,23.40
2018-10-19T03:45:06.604Z,23.40
2018-10-19T03:47:35.996Z,23.40
2018-10-19T03:50:05.504Z,23.40
2018-10-19T03:52:34.931Z,23.40
2018-10-19T03:55:04.381Z,23.40
2018-10-19T03:57:33.668Z,23.40
2018-10-19T04:00:03.044Z,23.40
2018-10-19T04:02:32.155Z,23.40
2018-10-19T04:05:01.616Z,23.40
2018-10-19T04:07:30.910Z,23.40
2018-10-19T04:10:00.140Z,23.40
2018-10-19T04:12:29.711Z,23.40
2018-10-19T04:14:58.949Z,23.40
2018-10-19T04:17:28.281Z,23.40
2018-10-19T04:19:57.676Z,23.40
2018-10-19T04:22:26.861Z,23.40
2018-10-19T04:24:56.248Z,23.40
2018-10-19T04:27:25.683Z,23.40
2018-10-19T04:29:55.204Z,23.30
2018-10-19T04:32:24.373Z,23.40
2018-10-19T04:34:54.089Z,23.40
2018-10-19T04:37:23.281Z,23.40
2018-10-19T04:39:52.720Z,23.40
2018-10-19T04:42:22.062Z,23.30
2018-10-19T04:44:51.477Z,23.30
2018-10-19T04:47:21.018Z,23.40
2018-10-19T04:49:50.419Z,23.30
2018-10-19T04:52:19.485Z,23.40
2018-10-19T04:54:48.757Z,23.30
2018-10-19T04:57:18.110Z,23.40
2018-10-19T04:59:47.914Z,23.40
2018-10-19T05:02:17.108Z,23.40
2018-10-19T05:04:46.295Z,23.30
2018-10-19T05:07:15.596Z,23.40
2018-10-19T05:09:44.934Z,23.40
2018-10-19T05:12:14.216Z,23.30
2018-10-19T05:14:43.557Z,23.30
2018-10-19T05:17:13.014Z,23.40
2018-10-19T05:19:42.512Z,23.30
2018-10-19T05:22:11.945Z,23.30
2018-10-19T05:24:41.397Z,23.40
2018-10-19T05:27:10.871Z,23.30
2018-10-19T05:29:40.241Z,23.40
2018-10-19T05:32:09.822Z,23.40
2018-10-19T05:34:39.361Z,23.40
2018-10-19T05:37:08.929Z,23.40
2018-10-19T05:39:38.231Z,23.30
2018-10-19T05:42:08.449Z,23.40
2018-10-19T05:44:37.908Z,23.30
2018-10-19T05:47:07.455Z,23.30
2018-10-19T05:49:36.590Z,23.40
2018-10-19T05:52:05.973Z,23.40
2018-10-19T05:54:35.423Z,23.40
2018-10-19T05:57:05.048Z,23.30
2018-10-19T05:59:34.288Z,23.40
2018-10-19T06:02:03.784Z,23.40
2018-10-19T06:04:33.337Z,23.40
2018-10-19T06:07:02.643Z,23.40
2018-10-19T06:09:32.053Z,23.40
2018-10-19T06:12:01.363Z,23.40
2018-10-19T06:14:30.638Z,23.40
2018-10-19T06:17:00.283Z,23.40
2018-10-19T06:19:29.536Z,23.40
2018-10-19T06:21:58.873Z,23.40
2018-10-19T06:24:28.470Z,23.40
2018-10-19T06:26:58.071Z,23.40
2018-10-19T06:29:27.573Z,23.40
2018-10-19T06:31:56.815Z,23.40
2018-10-19T06:34:26.181Z,23.50
2018-10-19T06:36:55.348Z,23.50
2018-10-19T06:39:24.775Z,23.40
2018-10-19T06:41:53.975Z,23.50
2018-10-19T06:44:23.361Z,23.50
2018-10-19T06:46:52.808Z,23.50
2018-10-19T06:49:22.145Z,23.50
2018-10-19T06:51:51.385Z,23.50
2018-10-19T06:54:20.540Z,23.50
2018-10-19T06:56:50.046Z,23.50
2018-10-19T06:59:19.416Z,23.50
2018-10-19T07:01:48.744Z,23.50
2018-10-19T07:04:18.068Z,23.50
2018-10-19T07:06:47.674Z,23.60
2018-10-19T07:09:16.983Z,23.60
2018-10-19T07:11:46.525Z,23.60
2018-10-19T07:14:15.788Z,23.60
2018-10-19T07:16:45.110Z,23.60
2018-10-19T07:19:14.539Z,23.60
2018-10-19T07:21:43.919Z,23.60
2018-10-19T07:24:13.413Z,23.60
2018-10-19T07:26:42.875Z,23.60
2018-10-19T07:29:12.548Z,23.60
2018-10-19T07:31:41.915Z,23.60
2018-10-19T07:34:11.400Z,23.60
2018-10-19T07:36:40.815Z,23.60
2018-10-19T07:39:10.392Z,23.60
2018-10-19T07:41:39.628Z,23.60
2018-10-19T07:44:09.113Z,23.60
2018-10-19T07:46:38.357Z,23.60
2018-10-19T07:49:07.509Z,23.60
2018-10-19T07:51:36.858Z,23.60
2018-10-19T07:54:06.277Z,23.70
2018-10-19T07:56:35.518Z,23.70
2018-10-19T07:59:04.913Z,23.70
2018-10-19T08:01:34.041Z,23.70
2018-10-19T08:04:03.239Z,23.70
2018-10-19T08:06:32.564Z,23.70
2018-10-19T08:09:01.645Z,23.80
2018-10-19T08:11:31.087Z,23.80
2018-10-19T08:14:00.137Z,23.80
2018-10-19T08:16:29.236Z,23.80
2018-10-19T08:18:58.613Z,23.80
2018-10-19T08:21:27.897Z,23.90
2018-10-19T08:23:57.244Z,23.90
2018-10-19T08:26:26.601Z,23.90
2018-10-19T08:28:55.915Z,23.90
2018-10-19T08:31:25.146Z,23.90
2018-10-19T08:33:54.684Z,23.90
2018-10-19T08:36:23.983Z,24.00
2018-10-19T08:38:53.396Z,24.00
2018-10-19T08:41:22.940Z,24.10
2018-10-19T08:43:52.747Z,24.10
2018-10-19T08:46:27.453Z,24.10
2018-10-19T08:48:56.602Z,24.20
2018-10-19T08:51:26.130Z,24.10
2018-10-19T08:53:55.497Z,24.20
2018-10-19T08:56:24.776Z,24.20
2018-10-19T08:58:54.173Z,24.20
2018-10-19T09:01:23.656Z,24.30
2018-10-19T09:03:53.045Z,24.30
2018-10-19T09:06:22.720Z,24.30
2018-10-19T09:08:52.224Z,24.30
2018-10-19T09:11:21.879Z,24.30
2018-10-19T09:13:51.281Z,24.30
2018-10-19T09:16:20.744Z,24.30
2018-10-19T09:18:50.294Z,24.30
2018-10-19T09:21:19.544Z,24.40
2018-10-19T09:23:48.868Z,24.50
2018-10-19T09:26:18.255Z,24.40
2018-10-19T09:28:47.800Z,24.50
2018-10-19T09:31:17.364Z,24.50
2018-10-19T09:33:46.544Z,24.40
2018-10-19T09:36:16.010Z,24.40
2018-10-19T09:38:45.072Z,24.40
2018-10-19T09:41:14.614Z,24.40
2018-10-19T09:43:43.906Z,24.40
2018-10-19T09:46:13.173Z,24.30
2018-10-19T09:48:42.737Z,24.40
2018-10-19T09:51:12.301Z,24.40
2018-10-19T09:53:41.712Z,24.30
2018-10-19T09:56:10.908Z,24.30
2018-10-19T09:58:40.546Z,24.40
2018-10-19T10:01:14.982Z,24.40
2018-10-19T10:03:44.556Z,24.30
2018-10-19T10:06:13.810Z,24.30
2018-10-19T10:08:43.288Z,24.30
2018-10-19T10:11:12.451Z,24.30
2018-10-19T10:13:42.069Z,24.30
2018-10-19T10:16:11.565Z,24.30
2018-10-19T10:18:41.088Z,24.30
2018-10-19T10:21:10.336Z,24.30
2018-10-19T10:23:39.825Z,24.30
2018-10-19T10:26:09.261Z,24.30
2018-10-19T10:28:38.568Z,24.30
2018-10-19T10:31:07.592Z,24.30
2018-10-19T10:33:36.916Z,24.30
2018-10-19T10:36:06.161Z,24.30
2018-10-19T10:38:35.555Z,24.30
2018-10-19T10:41:04.730Z,24.30
2018-10-19T10:43:34.372Z,24.30
2018-10-19T10:46:03.694Z,24.20
2018-10-19T10:48:32.949Z,24.30
2018-10-19T10:51:02.452Z,24.30
2018-10-19T10:53:31.748Z,24.20
2018-10-19T10:56:01.076Z,24.20
2018-10-19T10:58:30.376Z,24.20
2018-10-19T11:00:59.557Z,24.20
2018-10-19T11:03:28.760Z,24.20
2018-10-19T11:05:58.068Z,24.20
2018-10-19T11:08:27.351Z,24.20
2018-10-19T11:11:16.560Z,24.20
2018-10-19T11:13:46.840Z,24.20
2018-10-19T11:16:16.060Z,24.20
2018-10-19T11:18:45.452Z,24.10
2018-10-19T11:21:14.564Z,24.20
2018-10-19T11:23:43.843Z,24.20
2018-10-19T11:26:13.060Z,24.10
2018-10-19T11:28:42.456Z,24.10
2018-10-19T11:31:11.606Z,24.20
2018-10-19T11:33:40.632Z,24.10
2018-10-19T11:36:09.948Z,24.10
2018-10-19T11:38:39.089Z,24.10
2018-10-19T11:41:08.250Z,24.20
2018-10-19T11:43:37.520Z,24.10
2018-10-19T11:46:06.874Z,24.10
2018-10-19T11:48:36.071Z,24.10
2018-10-19T11:51:05.364Z,24.10
2018-10-19T11:53:34.768Z,24.20
2018-10-19T11:56:04.048Z,24.10
2018-10-19T11:58:33.263Z,24.10
2018-10-19T12:01:02.714Z,24.10
2018-10-19T12:03:32.038Z,24.10
2018-10-19T12:06:01.381Z,24.10
2018-10-19T12:08:30.670Z,24.10
2018-10-19T12:10:59.967Z,24.10
2018-10-19T12:13:29.201Z,24.10
2018-10-19T12:15:58.376Z,24.10
2018-10-19T12:18:27.556Z,24.10
2018-10-19T12:20:56.952Z,24.10
2018-10-19T12:23:26.159Z,24.10
2018-10-19T12:25:55.308Z,24.10
2018-10-19T12:28:24.705Z,24.10
2018-10-19T12:30:54.008Z,24.10
2018-10-19T12:33:23.244Z,24.10
2018-10-19T12:35:52.577Z,24.10
2018-10-19T12:38:21.994Z,24.10
2018-10-19T12:40:51.308Z,24.10
2018-10-19T12:43:20.612Z,24.10
2018-10-19T12:46:31.294Z,24.10
2018-10-19T12:49:00.592Z,24.10
2018-10-19T12:51:29.928Z,24.10
2018-10-19T12:53:59.343Z,24.10
2018-10-19T12:56:28.551Z,24.10
2018-10-19T12:58:58.044Z,24.10
2018-10-19T13:01:28.299Z,24.10
2018-10-19T13:03:57.794Z,24.20
2018-10-19T13:06:27.092Z,24.10
2018-10-19T13:08:56.389Z,24.20
2018-10-19T13:11:25.680Z,24.20
2018-10-19T13:13:55.225Z,24.20
2018-10-19T13:16:24.753Z,24.20
2018-10-19T13:18:54.022Z,24.20
2018-10-19T13:21:23.064Z,24.20
2018-10-19T13:23:52.393Z,24.10
2018-10-19T13:26:21.580Z,24.10
2018-10-19T13:28:50.923Z,24.10
2018-10-19T13:31:19.992Z,24.10
2018-10-19T13:33:49.188Z,24.10
2018-10-19T13:36:18.493Z,24.10
2018-10-19T13:38:48.041Z,24.10
2018-10-19T13:41:17.251Z,24.10
2018-10-19T13:43:46.568Z,24.10
2018-10-19T13:46:15.968Z,24.10
2018-10-19T13:48:45.320Z,24.10
2018-10-19T13:51:14.728Z,24.00
2018-10-19T13:53:43.958Z,24.10
2018-10-19T13:56:13.068Z,24.10
2018-10-19T13:58:42.404Z,24.10
2018-10-19T14:01:11.912Z,24.00
2018-10-19T14:03:41.239Z,24.00
2018-10-19T14:06:10.508Z,24.00
2018-10-19T14:08:39.964Z,24.00
2018-10-19T14:11:09.322Z,24.00
2018-10-19T14:13:38.743Z,24.00
2018-10-19T14:16:07.916Z,24.00
2018-10-19T14:18:37.208Z,24.00
2018-10-19T14:21:06.686Z,24.00
2018-10-19T14:23:36.028Z,24.00
2018-10-19T14:26:05.545Z,24.00
2018-10-19T14:28:34.883Z,24.00
2018-10-19T14:31:04.136Z,24.00
2018-10-19T14:33:33.793Z,24.00
2018-10-19T14:36:02.937Z,23.90
2018-10-19T14:38:32.380Z,24.00
2018-10-19T14:41:01.537Z,24.00
2018-10-19T14:43:31.254Z,23.90
2018-10-19T14:46:00.486Z,24.00
2018-10-19T14:48:30.289Z,23.90
2018-10-19T14:50:59.917Z,23.90
2018-10-19T14:53:29.601Z,23.90
2018-10-19T14:55:58.839Z,24.00
2018-10-19T14:58:28.320Z,23.90
2018-10-19T15:00:57.559Z,23.90
2018-10-19T15:03:26.916Z,23.90
2018-10-19T15:05:56.152Z,23.90
2018-10-19T15:08:25.508Z,23.90
2018-10-19T15:10:54.882Z,23.90
2018-10-19T15:13:23.909Z,23.90
2018-10-19T15:15:53.156Z,23.90
2018-10-19T15:18:22.535Z,23.90
2018-10-19T15:20:51.896Z,23.90
2018-10-19T15:23:21.357Z,23.90
2018-10-19T15:25:50.599Z,23.90
2018-10-19T15:28:19.920Z,23.80
2018-10-19T15:30:49.224Z,23.90
2018-10-19T15:33:18.546Z,23.80
2018-10-19T15:35:47.925Z,23.90
2018-10-19T15:38:17.303Z,23.90
2018-10-19T15:40:46.430Z,23.80
2018-10-19T15:43:15.696Z,23.80
2018-10-19T15:45:44.876Z,23.80
2018-10-19T15:48:14.302Z,23.80
2018-10-19T15:50:43.381Z,23.80
2018-10-19T15:53:12.756Z,23.80
2018-10-19T15:55:41.972Z,23.80
2018-10-19T15:58:11.384Z,23.80
2018-10-19T16:00:41.064Z,23.80
2018-10-19T16:03:10.306Z,23.80
2018-10-19T16:05:39.500Z,23.80
2018-10-19T16:08:08.691Z,23.80
2018-10-19T16:10:38.004Z,23.80
2018-10-19T16:13:07.069Z,23.70
2018-10-19T16:15:36.198Z,23.80
2018-10-19T16:18:05.427Z,23.80
2018-10-19T16:20:34.373Z,23.80
2018-10-19T16:23:03.326Z,23.80
2018-10-19T16:25:32.389Z,23.80
2018-10-19T16:28:01.709Z,23.60
2018-10-19T16:30:31.091Z,23.20
2018-10-19T16:33:00.136Z,22.90
2018-10-19T16:35:29.527Z,22.60
2018-10-19T16:37:58.791Z,22.40
2018-10-19T16:40:28.305Z,22.20
2018-10-19T16:42:57.697Z,22.00
2018-10-19T16:45:26.781Z,21.90
2018-10-19T16:47:56.221Z,21.80
2018-10-19T16:50:26.008Z,21.60
2018-10-19T16:52:55.202Z,21.50
2018-10-19T16:55:24.503Z,21.50
2018-10-19T16:57:54.424Z,21.70
2018-10-19T17:00:24.093Z,22.00
2018-10-19T17:02:53.365Z,22.30
2018-10-19T17:05:23.009Z,22.50
2018-10-19T17:07:52.041Z,22.60
2018-10-19T17:10:22.791Z,22.70
2018-10-19T17:12:52.042Z,22.90
2018-10-19T17:15:21.144Z,23.00
2018-10-19T17:17:50.481Z,23.10
2018-10-19T17:20:20.642Z,23.10
2018-10-19T17:22:49.909Z,23.30
2018-10-19T17:25:18.949Z,23.30
2018-10-19T17:27:48.435Z,23.30
2018-10-19T17:30:17.696Z,23.40
2018-10-19T17:32:47.211Z,23.40
2018-10-19T17:35:16.470Z,23.50
2018-10-19T17:37:45.754Z,23.50
2018-10-19T17:40:14.894Z,23.50
2018-10-19T17:42:44.123Z,23.50
2018-10-19T17:45:13.332Z,23.50
2018-10-19T17:47:43.340Z,23.50
2018-10-19T17:50:12.787Z,23.60
2018-10-19T17:52:41.885Z,23.60
2018-10-19T17:55:12.103Z,23.60
2018-10-19T17:57:41.550Z,23.60
2018-10-19T18:00:12.633Z,23.60
2018-10-19T18:02:41.685Z,23.60
2018-10-19T18:05:11.243Z,23.60
2018-10-19T18:07:40.373Z,23.60
2018-10-19T18:10:09.782Z,23.60
2018-10-19T18:12:40.241Z,23.60
2018-10-19T18:15:09.504Z,23.60
2018-10-19T18:17:39.096Z,23.60
2018-10-19T18:20:08.416Z,23.60
2018-10-19T18:22:38.036Z,23.60
2018-10-19T18:25:07.636Z,23.60
2018-10-19T18:27:36.825Z,23.60
2018-10-19T18:30:06.588Z,23.60
2018-10-19T18:32:36.423Z,23.60
2018-10-19T18:35:06.753Z,23.60
2018-10-19T18:37:35.857Z,23.50
2018-10-19T18:40:06.713Z,23.50
2018-10-19T18:42:37.612Z,23.50
2018-10-19T18:45:07.788Z,23.50
2018-10-19T18:47:37.985Z,23.50
2018-10-19T18:50:07.907Z,23.50
2018-10-19T18:52:37.365Z,23.50
2018-10-19T18:55:06.893Z,23.50
2018-10-19T18:57:36.198Z,23.50
2018-10-19T19:00:06.341Z,23.50
2018-10-19T19:02:35.772Z,23.50
2018-10-19T19:05:05.485Z,23.50
2018-10-19T19:07:34.981Z,23.50
2018-10-19T19:10:09.475Z,23.50
2018-10-19T19:12:38.776Z,23.50
2018-10-19T19:15:08.480Z,23.50
2018-10-19T19:17:39.402Z,23.50
2018-10-19T19:20:14.413Z,23.50
2018-10-19T19:22:43.937Z,23.50
2018-10-19T19:25:18.745Z,23.40
2018-10-19T19:27:47.995Z,23.50
2018-10-19T19:30:17.578Z,23.50
2018-10-19T19:32:52.779Z,23.40
2018-10-19T19:35:22.116Z,23.50
2018-10-19T19:37:51.324Z,23.50
2018-10-19T19:40:20.687Z,23.40
2018-10-19T19:42:55.380Z,23.40
2018-10-19T19:45:24.717Z,23.40
2018-10-19T19:47:59.242Z,23.40
2018-10-19T19:50:28.533Z,23.40
2018-10-19T19:52:57.974Z,23.40
2018-10-19T19:55:27.349Z,23.40
2018-10-19T19:57:57.622Z,23.40
2018-10-19T20:00:27.767Z,23.40
2018-10-19T20:02:57.080Z,23.40
2018-10-19T20:05:26.520Z,23.40
2018-10-19T20:07:56.273Z,23.40
2018-10-19T20:10:25.812Z,23.40
2018-10-19T20:12:55.101Z,23.30
2018-10-19T20:15:24.601Z,23.40
2018-10-19T20:17:53.993Z,23.40
2018-10-19T20:20:24.220Z,23.40
2018-10-19T20:22:53.739Z,23.30
2018-10-19T20:25:23.450Z,23.40
2018-10-19T20:27:52.957Z,23.30
2018-10-19T20:30:22.334Z,23.40
2018-10-19T20:32:51.649Z,23.40
2018-10-19T20:35:20.749Z,23.30
2018-10-19T20:37:50.039Z,23.30
2018-10-19T20:40:19.233Z,23.30
2018-10-19T20:42:48.793Z,23.40
2018-10-19T20:45:18.295Z,23.40
2018-10-19T20:47:47.873Z,23.30
2018-10-19T20:50:17.350Z,23.30
2018-10-19T20:52:46.815Z,23.30
2018-10-19T20:55:16.255Z,23.30
2018-10-19T20:57:45.775Z,23.30
2018-10-19T21:00:16.580Z,23.30
2018-10-19T21:02:46.081Z,23.30
2018-10-19T21:05:15.650Z,23.30
2018-10-19T21:07:45.102Z,23.30
2018-10-19T21:10:14.889Z,23.30
2018-10-19T21:12:44.969Z,23.30
2018-10-19T21:15:14.743Z,23.30
2018-10-19T21:17:44.069Z,23.30
2018-10-19T21:20:13.679Z,23.30
2018-10-19T21:22:42.948Z,23.30
2018-10-19T21:25:13.167Z,23.30
2018-10-19T21:27:42.838Z,23.30
2018-10-19T21:30:13.217Z,23.30
2018-10-19T21:32:42.821Z,23.30
2018-10-19T21:35:12.968Z,23.30
2018-10-19T21:37:42.384Z,23.20
2018-10-19T21:40:11.852Z,23.20
2018-10-19T21:42:41.056Z,23.20
2018-10-19T21:45:10.599Z,23.20
2018-10-19T21:47:40.004Z,23.20
2018-10-19T21:50:09.923Z,23.20
2018-10-19T21:52:39.088Z,23.20
2018-10-19T21:55:10.476Z,23.20
2018-10-19T21:57:39.602Z,23.20
2018-10-19T22:00:09.896Z,23.20
2018-10-19T22:02:39.289Z,23.20
2018-10-19T22:05:09.106Z,23.20
2018-10-19T22:07:38.907Z,23.20
2018-10-19T22:10:08.468Z,23.20
2018-10-19T22:12:37.804Z,23.10
2018-10-19T22:15:07.953Z,23.10
2018-10-19T22:17:37.524Z,23.20
2018-10-19T22:20:07.429Z,23.20
2018-10-19T22:22:36.869Z,23.10
2018-10-19T22:25:06.974Z,23.20
2018-10-19T22:27:37.308Z,23.20
2018-10-19T22:30:07.392Z,23.10
2018-10-19T22:32:37.533Z,23.20
2018-10-19T22:35:07.009Z,23.20
2018-10-19T22:37:36.359Z,23.20
2018-10-19T22:40:05.871Z,23.10
2018-10-19T22:42:35.243Z,23.10
2018-10-19T22:45:04.574Z,23.10
2018-10-19T22:47:33.820Z,23.10
2018-10-19T22:50:03.037Z,23.20
2018-10-19T22:52:32.351Z,23.10
2018-10-19T22:55:01.652Z,23.10
2018-10-19T22:57:30.717Z,23.10
2018-10-19T22:59:59.972Z,23.10
2018-10-19T23:02:29.130Z,23.10
2018-10-19T23:04:58.304Z,23.10
2018-10-19T23:07:27.425Z,23.10
2018-10-19T23:09:56.615Z,23.10
2018-10-19T23:12:25.628Z,23.10
2018-10-19T23:14:54.912Z,23.10
2018-10-19T23:17:24.613Z,23.10
2018-10-19T23:19:54.790Z,23.10
2018-10-19T23:22:24.704Z,23.10
2018-10-19T23:24:54.802Z,23.00
2018-10-19T23:27:24.447Z,23.10
2018-10-19T23:29:54.068Z,23.10
2018-10-19T23:32:24.274Z,23.10
2018-10-19T23:34:54.405Z,23.00
2018-10-19T23:37:24.554Z,23.00
2018-10-19T23:39:55.137Z,23.10
2018-10-19T23:42:25.503Z,23.10
2018-10-19T23:44:55.025Z,23.10
2018-10-19T23:47:25.231Z,23.00
2018-10-19T23:49:54.933Z,23.00
2018-10-19T23:52:24.695Z,23.00
2018-10-19T23:54:54.809Z,23.00
2018-10-19T23:57:24.743Z,23.00
2018-10-19T23:59:54.533Z,23.00
